Time;durP1;ratioP1;P1;durP2;ratioP2;P2;SDS_P1;SDS_P2;PMS_P1;PMS_P2;Temp;Humidity;BMP_temperature;BMP_pressure;BME280_temperature;BME280_humidity;BME280_pressure;Samples;Min_cycle;Max_cycle;Signal;HPM_P1;HPM_P2
2022/05/20 00:01:06;;;;;;;0.80;0.80;;;18.10;99.90;;;;;;5042799;28;20213;-54
2022/05/20 00:03:35;;;;;;;3.20;0.80;;;18.00;99.90;;;;;;5043707;28;20220;-56
2022/05/20 00:06:01;;;;;;;1.63;0.80;;;18.10;99.90;;;;;;5042206;28;20189;-53
2022/05/20 00:08:27;;;;;;;2.70;0.70;;;18.00;99.90;;;;;;5045030;28;20248;-51
2022/05/20 00:10:54;;;;;;;2.40;1.00;;;18.10;99.90;;;;;;5041979;28;20386;-57
2022/05/20 00:13:21;;;;;;;1.13;0.80;;;18.10;99.90;;;;;;5043707;28;20234;-51
2022/05/20 00:15:47;;;;;;;0.80;0.80;;;18.10;99.90;;;;;;5075969;28;20202;-53
2022/05/20 00:18:13;;;;;;;0.73;0.73;;;18.20;99.90;;;;;;5076140;28;20340;-55
2022/05/20 00:20:39;;;;;;;0.67;0.67;;;18.20;99.90;;;;;;5076288;28;20191;-52
2022/05/20 00:23:04;;;;;;;1.93;0.77;;;18.20;99.90;;;;;;5075467;28;20187;-50
2022/05/20 00:25:45;;;;;;;1.10;1.00;;;18.20;99.90;;;;;;5078394;28;20243;-50
2022/05/20 00:28:12;;;;;;;2.63;0.73;;;18.20;99.90;;;;;;5075444;28;20224;-53
2022/05/20 00:30:39;;;;;;;0.83;0.70;;;18.20;99.90;;;;;;5076579;28;20199;-54
2022/05/20 00:33:05;;;;;;;0.63;0.63;;;18.20;99.90;;;;;;5074559;28;20198;-47
2022/05/20 00:35:31;;;;;;;1.37;0.60;;;18.20;99.90;;;;;;5075832;28;20288;-48
2022/05/20 00:37:57;;;;;;;0.83;0.70;;;18.10;99.90;;;;;;5076077;28;20278;-46
2022/05/20 00:40:25;;;;;;;1.80;0.90;;;18.20;99.90;;;;;;5041505;28;20228;-46
2022/05/20 00:43:00;;;;;;;1.63;1.00;;;18.10;99.90;;;;;;5077687;28;20190;-48
2022/05/20 00:45:26;;;;;;;3.03;1.10;;;18.10;99.90;;;;;;5075427;28;20197;-52
2022/05/20 00:47:52;;;;;;;0.70;0.70;;;18.10;99.90;;;;;;5076493;28;20317;-47
2022/05/20 00:50:18;;;;;;;0.70;0.70;;;18.00;99.90;;;;;;5075888;28;20274;-50
2022/05/20 00:52:49;;;;;;;2.10;1.10;;;17.90;99.90;;;;;;5075178;28;20190;-54
2022/05/20 00:55:19;;;;;;;3.10;1.03;;;17.80;99.90;;;;;;5076145;28;20233;-48
2022/05/20 00:58:00;;;;;;;0.77;0.77;;;17.90;99.90;;;;;;5074656;28;20191;-49
2022/05/20 01:00:29;;;;;;;1.67;0.80;;;17.90;99.90;;;;;;5076631;28;20195;-50
2022/05/20 01:03:03;;;;;;;0.60;0.60;;;17.80;99.90;;;;;;5075162;28;20214;-46
2022/05/20 01:05:37;;;;;;;1.40;0.67;;;17.80;99.90;;;;;;5076146;28;20266;-47
2022/05/20 01:08:05;;;;;;;1.13;1.00;;;17.80;99.90;;;;;;5075842;28;20220;-52
2022/05/20 01:10:31;;;;;;;0.93;0.63;;;17.80;99.90;;;;;;5074751;28;20248;-48
2022/05/20 01:12:58;;;;;;;2.87;0.70;;;17.70;99.90;;;;;;5086843;28;20234;-49
2022/05/20 01:15:24;;;;;;;1.10;1.07;;;17.70;99.90;;;;;;5077980;28;20223;-52
2022/05/20 01:17:53;;;;;;;0.60;0.60;;;17.60;99.90;;;;;;5080185;28;20188;-47
2022/05/20 01:20:29;;;;;;;0.80;0.80;;;17.70;99.90;;;;;;5078239;28;20195;-49
2022/05/20 01:23:09;;;;;;;0.70;0.70;;;17.70;99.90;;;;;;5078564;28;20218;-52
2022/05/20 01:25:35;;;;;;;1.90;0.90;;;17.60;99.90;;;;;;5079839;28;20216;-50
2022/05/20 01:28:01;;;;;;;0.80;0.80;;;17.60;99.90;;;;;;5078562;28;20247;-57
2022/05/20 01:30:29;;;;;;;0.87;0.87;;;17.60;99.90;;;;;;5084201;28;20185;-53
2022/05/20 01:32:55;;;;;;;0.90;0.80;;;17.60;99.90;;;;;;5081797;28;20267;-50
2022/05/20 01:35:43;;;;;;;1.40;1.00;;;17.60;99.90;;;;;;5082906;28;20188;-50
2022/05/20 01:38:11;;;;;;;1.17;1.07;;;17.50;99.90;;;;;;5048308;28;20279;-54
2022/05/20 01:40:52;;;;;;;1.07;0.87;;;17.50;99.90;;;;;;5081500;28;20228;-51
2022/05/20 01:43:33;;;;;;;0.77;0.77;;;17.50;99.90;;;;;;5083886;28;20184;-49
2022/05/20 01:46:33;;;;;;;1.77;0.80;;;17.50;99.90;;;;;;5082104;28;20191;-53
2022/05/20 01:49:11;;;;;;;0.93;0.93;;;17.50;99.90;;;;;;5113088;27;20198;-56
2022/05/20 01:51:52;;;;;;;1.47;0.80;;;17.40;99.90;;;;;;5089899;28;20182;-54
2022/05/20 01:54:33;;;;;;;1.37;0.80;;;17.40;99.90;;;;;;5087931;28;20275;-50
2022/05/20 01:57:10;;;;;;;0.90;0.90;;;17.30;99.90;;;;;;5090323;28;20192;-54
2022/05/20 01:59:42;;;;;;;1.60;0.80;;;17.30;99.90;;;;;;5088992;28;20199;-52
2022/05/20 02:02:16;;;;;;;1.00;1.00;;;17.20;99.90;;;;;;5089178;28;20191;-50
2022/05/20 02:04:51;;;;;;;1.03;1.00;;;17.20;99.90;;;;;;5090722;28;20219;-50
2022/05/20 02:07:23;;;;;;;1.03;1.03;;;17.20;99.90;;;;;;5087611;28;20219;-52
2022/05/20 02:10:10;;;;;;;1.20;1.20;;;17.20;99.90;;;;;;5090068;28;20194;-47
2022/05/20 02:12:41;;;;;;;3.03;0.90;;;17.20;99.90;;;;;;5088795;28;20241;-53
2022/05/20 02:15:27;;;;;;;1.00;0.90;;;17.10;99.90;;;;;;5088039;28;20215;-50
2022/05/20 02:17:59;;;;;;;1.00;1.00;;;17.20;99.90;;;;;;5089953;28;20190;-50
2022/05/20 02:20:35;;;;;;;1.93;1.27;;;17.10;99.90;;;;;;5104877;28;20181;-48
2022/05/20 02:23:07;;;;;;;1.03;0.90;;;17.20;99.90;;;;;;5089101;28;20209;-50
2022/05/20 02:25:40;;;;;;;0.93;0.93;;;17.10;99.90;;;;;;5089271;28;20189;-52
2022/05/20 02:28:13;;;;;;;0.93;0.93;;;17.10;99.90;;;;;;5087670;28;20220;-51
2022/05/20 02:30:41;;;;;;;1.10;0.87;;;17.10;99.90;;;;;;5089308;28;20210;-50
2022/05/20 02:33:16;;;;;;;0.70;0.70;;;17.00;99.90;;;;;;5086679;28;20199;-49
2022/05/20 02:35:42;;;;;;;1.50;1.17;;;17.00;99.90;;;;;;5089267;28;20264;-50
2022/05/20 02:38:12;;;;;;;1.00;1.00;;;16.90;99.90;;;;;;5087958;28;20210;-46
2022/05/20 02:40:40;;;;;;;1.73;0.87;;;16.90;99.90;;;;;;5087003;28;20217;-47
2022/05/20 02:43:06;;;;;;;1.17;0.90;;;16.90;99.90;;;;;;5087955;28;20248;-50
2022/05/20 02:45:33;;;;;;;0.93;0.93;;;16.90;99.90;;;;;;5087449;28;20280;-59
2022/05/20 02:47:59;;;;;;;4.90;1.17;;;16.90;99.90;;;;;;5089107;28;20278;-54
2022/05/20 02:50:25;;;;;;;2.10;0.97;;;16.80;99.90;;;;;;5086671;28;20216;-55
2022/05/20 02:52:51;;;;;;;0.90;0.90;;;16.80;99.90;;;;;;5089141;28;20193;-56
2022/05/20 02:55:17;;;;;;;1.00;1.00;;;16.80;99.90;;;;;;5088542;28;20189;-53
2022/05/20 02:57:44;;;;;;;2.07;1.00;;;16.80;99.90;;;;;;5088058;28;20185;-47
2022/05/20 03:05:40;;;;;;;1.73;1.10;;;16.80;99.90;;;;;;5106182;28;20261;-51
2022/05/20 03:08:06;;;;;;;58.10;23.03;;;16.80;99.90;;;;;;5086757;28;20288;-54
2022/05/20 03:10:32;;;;;;;5.53;3.50;;;16.70;99.90;;;;;;5088108;28;20212;-53
2022/05/20 03:12:59;;;;;;;1.70;1.60;;;16.70;99.90;;;;;;5087747;28;20234;-56
2022/05/20 03:15:24;;;;;;;1.67;0.83;;;16.70;99.90;;;;;;5087356;28;20198;-55
2022/05/20 03:17:50;;;;;;;1.40;1.30;;;16.70;99.90;;;;;;5087747;28;20236;-57
2022/05/20 03:20:16;;;;;;;0.80;0.80;;;16.70;99.90;;;;;;5086086;28;20238;-56
2022/05/20 03:22:42;;;;;;;1.97;1.20;;;16.70;99.90;;;;;;5088664;28;20234;-54
2022/05/20 03:25:08;;;;;;;1.10;1.00;;;16.60;99.90;;;;;;5086536;28;20252;-49
2022/05/20 03:27:34;;;;;;;1.03;1.03;;;16.70;99.90;;;;;;5087684;28;20241;-52
2022/05/20 03:30:00;;;;;;;3.10;1.50;;;16.70;99.90;;;;;;5086823;28;20225;-57
2022/05/20 03:32:26;;;;;;;1.10;1.00;;;16.60;99.90;;;;;;5086300;28;20190;-55
2022/05/20 03:34:51;;;;;;;1.40;1.30;;;16.60;99.90;;;;;;5087408;28;20313;-51
2022/05/20 03:37:17;;;;;;;1.77;1.07;;;16.60;99.90;;;;;;5085998;28;20189;-57
2022/05/20 03:39:43;;;;;;;1.20;1.10;;;16.70;99.90;;;;;;5087778;28;20185;-58
2022/05/20 03:42:09;;;;;;;1.83;1.17;;;16.60;99.90;;;;;;5085232;28;20201;-54
2022/05/20 03:44:35;;;;;;;13.50;7.30;;;16.60;99.90;;;;;;5087477;28;20181;-50
2022/05/20 03:47:01;;;;;;;9.00;3.20;;;16.70;99.90;;;;;;5085334;28;20220;-55
2022/05/20 03:49:28;;;;;;;1.93;1.60;;;16.60;99.90;;;;;;5086237;28;20271;-54
2022/05/20 03:51:55;;;;;;;1.40;1.30;;;16.60;99.90;;;;;;5084981;28;20193;-57
2022/05/20 03:54:23;;;;;;;2.50;1.67;;;16.60;99.90;;;;;;5085580;28;20298;-52
2022/05/20 03:56:49;;;;;;;1.73;1.40;;;16.60;99.90;;;;;;5088120;28;20183;-54
2022/05/20 03:59:15;;;;;;;2.10;1.60;;;16.70;99.90;;;;;;5085213;28;20198;-51
2022/05/20 04:01:58;;;;;;;2.70;2.13;;;16.70;99.90;;;;;;5088196;28;20189;-53
2022/05/20 04:04:28;;;;;;;9.33;5.03;;;16.80;99.90;;;;;;5086278;28;20193;-57
2022/05/20 04:06:54;;;;;;;55.33;25.43;;;16.80;99.90;;;;;;5086189;28;20331;-57
2022/05/20 04:09:20;;;;;;;3.80;2.43;;;16.90;99.90;;;;;;5086319;28;20259;-57
2022/05/20 04:11:48;;;;;;;2.10;1.57;;;17.00;99.90;;;;;;5085798;28;20249;-53
2022/05/20 04:14:13;;;;;;;1.67;1.57;;;16.90;99.90;;;;;;5091302;27;20193;-53
2022/05/20 04:16:40;;;;;;;1.47;1.43;;;17.10;99.90;;;;;;5087841;27;20249;-56
2022/05/20 04:19:06;;;;;;;1.50;1.40;;;17.10;99.90;;;;;;5091366;27;20179;-53
2022/05/20 04:21:32;;;;;;;1.50;1.40;;;17.20;99.90;;;;;;5088667;27;20190;-53
2022/05/20 04:23:57;;;;;;;1.80;1.70;;;17.30;99.90;;;;;;5089787;27;20197;-50
2022/05/20 04:26:23;;;;;;;3.13;1.70;;;17.30;99.90;;;;;;5090245;27;20216;-56
2022/05/20 04:28:49;;;;;;;2.97;1.63;;;17.40;99.90;;;;;;5088686;27;20212;-52
2022/05/20 04:31:15;;;;;;;2.27;2.00;;;17.50;99.90;;;;;;5089431;27;20183;-53
2022/05/20 04:33:40;;;;;;;1.90;1.70;;;17.50;99.90;;;;;;5088555;27;20195;-52
2022/05/20 04:36:07;;;;;;;2.90;1.93;;;17.60;99.90;;;;;;5090728;27;20208;-51
2022/05/20 04:38:33;;;;;;;2.70;1.87;;;17.70;99.90;;;;;;5088037;27;20187;-53
2022/05/20 04:49:12;;;;;;;1.63;1.50;;;17.90;99.90;;;;;;5097095;27;20188;-50
2022/05/20 04:51:39;;;;;;;1.63;1.53;;;18.00;99.90;;;;;;5076702;27;20192;-52
2022/05/20 04:56:51;;;;;;;1.60;1.50;;;18.10;99.90;;;;;;5096053;27;20240;-46
2022/05/20 04:59:17;;;;;;;2.07;1.50;;;18.00;99.90;;;;;;5076072;27;20183;-56
2022/05/20 05:01:44;;;;;;;1.40;1.30;;;18.00;99.90;;;;;;5079282;27;20176;-49
2022/05/20 05:04:10;;;;;;;2.93;1.50;;;18.10;99.90;;;;;;5075585;28;20619;-53
2022/05/20 05:06:36;;;;;;;1.70;1.60;;;18.10;99.90;;;;;;5080850;27;20292;-53
2022/05/20 05:09:03;;;;;;;1.50;1.40;;;18.20;99.90;;;;;;5080349;28;20212;-52
2022/05/20 05:11:29;;;;;;;1.57;1.47;;;18.20;99.90;;;;;;5069684;28;20276;-53
2022/05/20 05:14:35;;;;;;;2.07;1.60;;;18.30;99.90;;;;;;5067457;28;20301;-55
2022/05/20 05:17:08;;;;;;;1.93;1.40;;;18.30;99.90;;;;;;5066493;28;20204;-47
2022/05/20 05:19:38;;;;;;;1.47;1.37;;;18.40;99.90;;;;;;5069035;28;20184;-51
2022/05/20 05:22:06;;;;;;;2.63;1.20;;;18.40;99.90;;;;;;5064225;28;20173;-58
2022/05/20 05:24:33;;;;;;;1.70;1.10;;;18.50;99.90;;;;;;5067404;28;20181;-50
2022/05/20 05:26:59;;;;;;;1.20;1.20;;;18.50;99.90;;;;;;5068498;28;20220;-51
2022/05/20 05:29:24;;;;;;;2.63;1.33;;;18.60;99.90;;;;;;5067451;28;20196;-55
2022/05/20 05:31:50;;;;;;;1.60;1.50;;;18.60;99.90;;;;;;5068657;28;20181;-59
2022/05/20 05:34:17;;;;;;;1.50;1.40;;;18.60;99.90;;;;;;5066749;28;20187;-53
2022/05/20 05:36:42;;;;;;;1.67;1.57;;;18.70;99.90;;;;;;5070253;28;20201;-56
2022/05/20 05:39:08;;;;;;;1.97;1.87;;;18.80;99.90;;;;;;5067967;28;20188;-55
2022/05/20 05:41:34;;;;;;;2.10;1.60;;;18.70;99.90;;;;;;5069897;28;20209;-56
2022/05/20 05:44:02;;;;;;;1.37;1.37;;;18.90;99.90;;;;;;5068727;28;20196;-55
2022/05/20 05:46:28;;;;;;;1.77;1.67;;;19.10;99.90;;;;;;5068346;28;20350;-57
2022/05/20 05:48:54;;;;;;;1.80;1.70;;;19.10;99.90;;;;;;5065379;28;20196;-61
2022/05/20 05:51:20;;;;;;;1.90;1.53;;;19.00;99.90;;;;;;5068125;28;20284;-55
2022/05/20 05:53:45;;;;;;;1.33;1.33;;;19.00;99.90;;;;;;5070268;28;20265;-52
2022/05/20 05:56:11;;;;;;;2.00;1.73;;;19.10;99.90;;;;;;5068540;28;20288;-52
2022/05/20 05:58:37;;;;;;;1.97;1.70;;;19.20;99.90;;;;;;5103919;28;20185;-53
2022/05/20 06:01:03;;;;;;;2.33;1.60;;;19.30;99.90;;;;;;5068044;28;20187;-52
2022/05/20 06:03:29;;;;;;;2.00;1.80;;;19.30;99.90;;;;;;5068516;28;20224;-59
2022/05/20 06:05:55;;;;;;;2.10;1.27;;;19.40;99.90;;;;;;5068598;28;20173;-53
2022/05/20 06:08:22;;;;;;;2.43;1.50;;;19.40;99.90;;;;;;5067738;28;20205;-55
2022/05/20 06:10:48;;;;;;;1.73;1.60;;;19.40;99.90;;;;;;5069760;28;20178;-55
2022/05/20 06:13:27;;;;;;;1.83;1.67;;;19.50;99.90;;;;;;5066886;28;20298;-53
2022/05/20 06:15:57;;;;;;;1.60;1.57;;;19.60;99.90;;;;;;5073284;28;20222;-46
2022/05/20 06:18:23;;;;;;;1.30;1.30;;;19.50;99.90;;;;;;5073149;28;21150;-48
2022/05/20 06:20:49;;;;;;;1.40;1.30;;;19.50;99.90;;;;;;5071740;28;20173;-56
2022/05/20 06:23:15;;;;;;;1.60;1.50;;;19.50;99.90;;;;;;5072433;28;20181;-49
2022/05/20 06:25:42;;;;;;;1.40;1.40;;;19.60;99.90;;;;;;5068600;28;20185;-54
2022/05/20 06:28:14;;;;;;;1.80;1.60;;;19.60;99.90;;;;;;5073444;28;20209;-58
2022/05/20 06:30:42;;;;;;;1.40;1.40;;;19.80;99.90;;;;;;5070863;28;20260;-52
2022/05/20 06:33:08;;;;;;;2.03;1.90;;;19.70;99.90;;;;;;5073744;28;20180;-49
2022/05/20 06:41:04;;;;;;;3.27;1.40;;;19.90;99.90;;;;;;5089834;28;20223;-50
2022/05/20 06:43:30;;;;;;;1.70;1.60;;;20.10;99.90;;;;;;5071439;28;20190;-59
2022/05/20 06:45:58;;;;;;;1.80;1.70;;;20.20;99.90;;;;;;5071084;28;20275;-55
2022/05/20 06:48:35;;;;;;;2.20;2.00;;;20.40;99.90;;;;;;5070646;28;20265;-50
2022/05/20 06:51:07;;;;;;;1.73;1.63;;;20.60;99.90;;;;;;5071010;28;20177;-50
2022/05/20 06:53:32;;;;;;;2.63;1.60;;;20.70;99.90;;;;;;5071296;28;20224;-54
2022/05/20 06:55:58;;;;;;;3.07;1.80;;;20.60;99.90;;;;;;5070752;28;20231;-55
2022/05/20 06:58:24;;;;;;;1.50;1.50;;;20.70;99.90;;;;;;5072960;28;20184;-53
2022/05/20 07:00:50;;;;;;;1.77;1.67;;;20.80;99.90;;;;;;5070005;28;20184;-54
2022/05/20 07:03:19;;;;;;;1.77;1.53;;;20.90;99.90;;;;;;5072925;28;20289;-55
2022/05/20 07:05:46;;;;;;;2.03;1.80;;;21.10;99.90;;;;;;5070751;28;20193;-54
2022/05/20 07:08:12;;;;;;;2.07;1.90;;;21.20;99.90;;;;;;5070983;28;20213;-46
2022/05/20 07:10:39;;;;;;;2.20;1.52;;;21.50;99.90;;;;;;5070324;28;20187;-55
2022/05/20 07:13:06;;;;;;;1.73;1.63;;;21.60;99.90;;;;;;5068770;28;20217;-50
2022/05/20 07:15:32;;;;;;;1.70;1.60;;;21.70;99.90;;;;;;5073034;28;20193;-53
2022/05/20 07:17:58;;;;;;;2.38;1.77;;;21.70;99.90;;;;;;5069055;28;20280;-50
2022/05/20 07:20:24;;;;;;;1.98;1.88;;;21.70;99.90;;;;;;5072569;28;20268;-51
2022/05/20 07:22:50;;;;;;;2.05;1.75;;;21.80;99.90;;;;;;5070170;28;20177;-54
2022/05/20 07:25:16;;;;;;;2.08;1.85;;;22.00;99.90;;;;;;5071052;28;20560;-56
2022/05/20 07:27:42;;;;;;;1.85;1.75;;;22.00;99.90;;;;;;5070754;28;20216;-54
2022/05/20 07:30:09;;;;;;;1.63;1.52;;;22.00;99.90;;;;;;5070898;28;20193;-51
2022/05/20 07:32:34;;;;;;;3.22;1.75;;;22.10;99.90;;;;;;5071198;28;20189;-58
2022/05/20 07:35:00;;;;;;;2.03;1.90;;;22.30;99.90;;;;;;5069967;28;20637;-56
2022/05/20 07:37:26;;;;;;;1.88;1.77;;;22.70;99.90;;;;;;5072711;28;20264;-59
2022/05/20 07:39:52;;;;;;;2.17;2.00;;;22.70;99.90;;;;;;5069824;28;20188;-47
2022/05/20 07:42:17;;;;;;;2.40;1.80;;;22.80;99.90;;;;;;5089130;28;20181;-56
2022/05/20 07:44:43;;;;;;;1.60;1.50;;;22.90;99.90;;;;;;5087371;28;20173;-58
2022/05/20 07:47:09;;;;;;;2.30;2.10;;;23.20;99.90;;;;;;5070940;28;20213;-56
2022/05/20 07:49:35;;;;;;;2.00;1.90;;;23.20;99.90;;;;;;5071033;28;20181;-59
2022/05/20 07:52:03;;;;;;;1.60;1.50;;;23.20;99.90;;;;;;5070114;28;20190;-55
2022/05/20 07:54:34;;;;;;;2.08;1.92;;;23.30;99.90;;;;;;5071622;28;20285;-59
2022/05/20 07:57:04;;;;;;;1.48;1.48;;;23.50;99.90;;;;;;5070702;28;20217;-57
2022/05/20 07:59:31;;;;;;;1.90;1.80;;;23.60;99.90;;;;;;5072291;28;20883;-54
2022/05/20 08:02:00;;;;;;;1.40;1.40;;;24.10;99.90;;;;;;5070322;28;20246;-57
2022/05/20 08:04:53;;;;;;;2.00;1.90;;;24.10;99.90;;;;;;5070603;28;20234;-57
2022/05/20 08:07:20;;;;;;;1.80;1.70;;;24.70;99.90;;;;;;5070973;28;20224;-61
2022/05/20 08:09:47;;;;;;;1.70;1.60;;;24.90;99.90;;;;;;5069023;28;20277;-59
2022/05/20 08:12:13;;;;;;;2.38;1.58;;;24.80;99.90;;;;;;5071577;28;20623;-56
2022/05/20 08:14:39;;;;;;;1.88;1.42;;;24.80;99.90;;;;;;5069425;28;20201;-58
2022/05/20 08:17:05;;;;;;;1.85;1.75;;;24.90;99.90;;;;;;5070530;28;20181;-58
2022/05/20 08:19:32;;;;;;;2.03;1.92;;;25.10;99.90;;;;;;5069782;28;20189;-55
2022/05/20 08:21:58;;;;;;;1.90;1.80;;;25.50;99.90;;;;;;5070082;28;20181;-62
2022/05/20 08:24:24;;;;;;;1.50;1.50;;;25.50;99.90;;;;;;5070420;28;20189;-61
2022/05/20 08:26:50;;;;;;;4.63;2.88;;;25.40;99.90;;;;;;5069312;28;20213;-55
2022/05/20 08:29:16;;;;;;;1.80;1.70;;;25.30;99.90;;;;;;5070925;28;20181;-59
2022/05/20 08:31:42;;;;;;;2.47;2.10;;;25.50;99.90;;;;;;5069094;28;20208;-52
2022/05/20 08:34:09;;;;;;;1.73;1.63;;;26.00;99.90;;;;;;5070598;28;20193;-58
2022/05/20 08:36:35;;;;;;;1.90;1.80;;;26.30;99.90;;;;;;5069092;28;20184;-54
2022/05/20 08:39:02;;;;;;;2.20;2.05;;;26.20;99.90;;;;;;5069518;28;20189;-51
2022/05/20 08:41:36;;;;;;;2.05;1.95;;;26.40;99.90;;;;;;5069844;28;20173;-55
2022/05/20 08:44:02;;;;;;;2.05;1.95;;;26.70;99.90;;;;;;5068966;28;20220;-50
2022/05/20 08:46:28;;;;;;;1.67;1.58;;;26.50;99.90;;;;;;5070938;28;20223;-54
2022/05/20 08:48:58;;;;;;;1.90;1.80;;;26.80;99.90;;;;;;5069078;28;20192;-60
2022/05/20 08:51:29;;;;;;;1.85;1.75;;;26.50;99.90;;;;;;5070513;28;20189;-55
2022/05/20 08:53:55;;;;;;;2.17;1.98;;;26.70;99.90;;;;;;5069291;28;20189;-48
2022/05/20 08:56:24;;;;;;;2.75;2.55;;;27.00;99.90;;;;;;5069599;28;20193;-53
2022/05/20 08:58:59;;;;;;;2.20;2.10;;;27.60;99.90;;;;;;5069679;28;20194;-57
2022/05/20 09:01:40;;;;;;;3.60;2.13;;;27.80;99.90;;;;;;5068871;28;20180;-50
2022/05/20 09:04:07;;;;;;;2.00;1.90;;;28.00;99.90;;;;;;5070930;28;20185;-52
2022/05/20 09:06:57;;;;;;;2.92;2.50;;;28.40;99.90;;;;;;5068874;28;20236;-54
2022/05/20 09:09:27;;;;;;;2.63;2.00;;;28.50;99.90;;;;;;5051985;28;20201;-50
2022/05/20 09:11:56;;;;;;;1.80;1.70;;;28.10;99.90;;;;;;5069942;28;20267;-58
2022/05/20 09:17:11;;;;;;;2.53;1.85;;;28.50;99.90;;;;;;5087078;28;20185;-50
2022/05/20 09:19:38;;;;;;;4.50;2.50;;;28.60;99.90;;;;;;5068630;28;20195;-59
2022/05/20 09:22:13;;;;;;;2.45;2.30;;;28.90;99.90;;;;;;5069974;28;20268;-57
2022/05/20 09:24:43;;;;;;;2.00;1.90;;;28.50;99.90;;;;;;5069036;28;20188;-54
2022/05/20 09:27:17;;;;;;;2.40;2.30;;;28.60;99.90;;;;;;5069189;28;20231;-60
2022/05/20 09:29:54;;;;;;;3.08;2.30;;;28.50;99.90;;;;;;5070296;28;20184;-58
2022/05/20 09:32:43;;;;;;;2.10;2.00;;;29.10;99.90;;;;;;5068590;28;20177;-59
2022/05/20 09:35:18;;;;;;;9.90;5.57;;;29.40;99.90;;;;;;5068364;28;20193;-59
2022/05/20 09:37:48;;;;;;;5.45;2.63;;;30.00;99.90;;;;;;5069412;28;20185;-60
2022/05/20 09:40:36;;;;;;;2.25;2.10;;;30.90;99.20;;;;;;5068802;28;20173;-50
2022/05/20 09:43:06;;;;;;;2.28;2.10;;;31.30;98.90;;;;;;5070952;28;20239;-54
2022/05/20 09:45:51;;;;;;;2.10;2.00;;;31.20;98.90;;;;;;5068826;28;20276;-58
2022/05/20 09:48:41;;;;;;;3.83;2.58;;;30.40;99.50;;;;;;5069211;28;20263;-53
2022/05/20 09:51:16;;;;;;;2.00;1.90;;;30.70;98.60;;;;;;5073740;28;20197;-61
2022/05/20 09:54:03;;;;;;;2.40;2.20;;;30.70;99.00;;;;;;5072349;28;20204;-54
2022/05/20 09:56:33;;;;;;;2.10;2.00;;;31.40;98.30;;;;;;5074131;28;20188;-55
2022/05/20 09:58:59;;;;;;;3.55;2.05;;;32.10;96.60;;;;;;5072741;28;20200;-54
2022/05/20 10:01:28;;;;;;;1.85;1.83;;;33.00;95.70;;;;;;5072495;28;20189;-53
2022/05/20 10:04:00;;;;;;;2.67;2.47;;;33.00;95.10;;;;;;5072894;28;20213;-52
2022/05/20 10:06:36;;;;;;;2.20;2.10;;;33.50;94.60;;;;;;5072299;28;20181;-59
2022/05/20 10:09:07;;;;;;;2.33;2.22;;;32.40;95.80;;;;;;5073606;28;20197;-53
2022/05/20 10:11:51;;;;;;;3.15;2.95;;;32.80;95.60;;;;;;5071938;28;20213;-53
2022/05/20 10:14:44;;;;;;;2.70;2.53;;;33.20;94.70;;;;;;5072443;28;20185;-57
2022/05/20 10:17:28;;;;;;;2.33;2.00;;;33.30;94.50;;;;;;5074356;28;20181;-53
2022/05/20 10:20:08;;;;;;;2.00;1.90;;;33.30;94.90;;;;;;5072178;28;20181;-52
2022/05/20 10:22:39;;;;;;;5.60;4.28;;;33.10;95.00;;;;;;5073240;28;20195;-52
2022/05/20 10:25:30;;;;;;;3.00;2.80;;;33.50;94.20;;;;;;5072456;28;20279;-58
2022/05/20 10:32:34;;;;;;;2.28;2.08;;;33.90;93.80;;;;;;5071998;28;20248;-60
2022/05/20 10:33:51;;;;;;;2.25;2.15;;;33.90;93.00;;;;;;5089725;28;20363;-55
2022/05/20 10:36:39;;;;;;;2.20;2.10;;;34.50;92.60;;;;;;5071591;28;20275;-58
2022/05/20 10:42:36;;;;;;;3.05;2.10;;;35.10;90.60;;;;;;4988937;28;20196;-60
2022/05/20 10:48:37;;;;;;;1.95;1.88;;;35.30;90.10;;;;;;4989016;28;20227;-53
2022/05/20 10:51:14;;;;;;;1.98;1.83;;;36.00;88.90;;;;;;5004198;28;20187;-54
2022/05/20 10:54:31;;;;;;;2.10;2.00;;;35.90;87.40;;;;;;5003485;28;20214;-62
2022/05/20 10:56:56;;;;;;;1.60;1.60;;;35.30;88.20;;;;;;4956919;28;20291;-60
2022/05/20 10:59:49;;;;;;;2.42;1.90;;;36.20;86.70;;;;;;5004628;28;20282;-60
2022/05/20 11:02:36;;;;;;;1.80;1.70;;;36.90;84.90;;;;;;5004636;28;20282;-56
2022/05/20 11:05:07;;;;;;;2.13;1.92;;;37.70;83.10;;;;;;5005742;28;20184;-57
2022/05/20 11:07:57;;;;;;;2.00;1.90;;;37.50;82.30;;;;;;5004131;28;20219;-56
2022/05/20 11:10:44;;;;;;;1.85;1.75;;;37.40;81.30;;;;;;5004755;28;20191;-58
2022/05/20 11:13:24;;;;;;;1.38;1.38;;;37.40;80.70;;;;;;5003193;28;20255;-59
2022/05/20 11:16:05;;;;;;;1.42;1.42;;;38.50;78.10;;;;;;4969808;28;21376;-56
2022/05/20 11:18:48;;;;;;;1.60;1.55;;;37.10;79.50;;;;;;5035638;28;20207;-60
2022/05/20 11:21:46;;;;;;;1.40;1.40;;;37.30;80.00;;;;;;5070832;28;20184;-58
2022/05/20 11:24:19;;;;;;;1.40;1.40;;;37.90;79.10;;;;;;5070733;28;20195;-61
2022/05/20 11:26:48;;;;;;;1.85;1.20;;;37.20;77.80;;;;;;5072179;28;20213;-61
2022/05/20 11:29:32;;;;;;;5.80;1.50;;;37.30;78.10;;;;;;5069941;28;20252;-59
2022/05/20 11:32:05;;;;;;;1.83;1.55;;;37.90;75.70;;;;;;5070655;28;20208;-54
2022/05/20 11:35:13;;;;;;;1.25;1.25;;;37.90;76.70;;;;;;5068116;28;20185;-62
2022/05/20 11:41:48;;;;;;;1.60;1.60;;;38.10;75.00;;;;;;5067405;28;20216;-53
2022/05/20 11:44:41;;;;;;;1.67;1.58;;;36.70;78.20;;;;;;5059825;28;20198;-62
2022/05/20 11:47:25;;;;;;;1.27;1.27;;;38.70;73.20;;;;;;5069516;28;20247;-61
2022/05/20 11:50:09;;;;;;;1.48;1.38;;;38.60;71.90;;;;;;5070244;28;20180;-52
2022/05/20 11:52:44;;;;;;;1.80;1.70;;;38.50;72.00;;;;;;5069876;28;20263;-55
2022/05/20 11:55:17;;;;;;;2.55;1.48;;;38.20;72.40;;;;;;5069678;28;20269;-61
2022/05/20 11:57:53;;;;;;;1.20;1.20;;;38.30;72.10;;;;;;5070983;28;20207;-52
2022/05/20 12:00:21;;;;;;;1.27;1.20;;;39.70;69.40;;;;;;5069888;28;20184;-59
2022/05/20 12:02:55;;;;;;;1.60;1.48;;;39.70;69.10;;;;;;5069618;28;20196;-55
2022/05/20 12:05:25;;;;;;;1.55;1.55;;;39.50;70.70;;;;;;5070509;28;20192;-56
2022/05/20 12:07:51;;;;;;;1.20;1.20;;;38.60;70.00;;;;;;5069081;28;20463;-61
2022/05/20 12:10:18;;;;;;;2.55;1.45;;;39.10;70.00;;;;;;5070272;28;20181;-55
2022/05/20 12:13:06;;;;;;;1.48;1.48;;;39.60;67.30;;;;;;5066007;28;20243;-60
2022/05/20 12:15:38;;;;;;;1.30;1.30;;;40.60;64.40;;;;;;5082681;28;20203;-59
2022/05/20 12:24:29;;;;;;;0.85;0.85;;;41.90;60.60;;;;;;5062975;28;20244;-60
2022/05/20 12:26:56;;;;;;;1.17;1.17;;;42.50;58.70;;;;;;5045039;28;20214;-59
2022/05/20 12:29:43;;;;;;;1.40;1.30;;;42.40;53.70;;;;;;5045083;28;20185;-57
2022/05/20 12:32:29;;;;;;;1.50;1.50;;;42.10;54.10;;;;;;5070227;28;20202;-55
2022/05/20 12:35:10;;;;;;;1.15;1.10;;;41.10;55.00;;;;;;5046531;28;20177;-60
2022/05/20 12:37:41;;;;;;;1.30;1.20;;;41.00;54.70;;;;;;5044639;28;20178;-50
2022/05/20 12:40:39;;;;;;;0.90;0.90;;;41.30;56.00;;;;;;5045517;28;20220;-52
2022/05/20 12:43:04;;;;;;;1.73;1.30;;;42.60;52.40;;;;;;5068991;28;20221;-58
2022/05/20 12:45:55;;;;;;;1.20;1.20;;;39.30;53.20;;;;;;5045611;28;20217;-54
2022/05/20 12:48:28;;;;;;;1.40;1.25;;;37.70;58.20;;;;;;5038958;28;20229;-55
2022/05/20 12:51:05;;;;;;;1.00;1.00;;;39.00;56.80;;;;;;5064414;28;20205;-57
2022/05/20 12:53:37;;;;;;;1.05;0.95;;;40.10;54.60;;;;;;5047302;28;20257;-56
2022/05/20 12:56:06;;;;;;;3.00;1.20;;;40.90;52.50;;;;;;5045722;28;20186;-57
2022/05/20 12:58:35;;;;;;;3.28;1.02;;;40.40;52.80;;;;;;5051346;28;20196;-56
2022/05/20 13:01:04;;;;;;;1.02;1.02;;;41.30;51.70;;;;;;5047279;28;20277;-54
2022/05/20 13:03:32;;;;;;;1.77;1.10;;;40.90;51.20;;;;;;5047827;28;20166;-55
2022/05/20 13:06:05;;;;;;;0.98;0.98;;;41.30;50.50;;;;;;5048790;28;20178;-64
2022/05/20 13:08:40;;;;;;;1.25;1.15;;;39.00;52.40;;;;;;5049908;28;20263;-51
2022/05/20 13:11:11;;;;;;;1.00;1.00;;;40.40;51.60;;;;;;5045088;28;20217;-49
2022/05/20 13:13:38;;;;;;;1.38;1.02;;;41.00;50.80;;;;;;5060015;28;20231;-61
2022/05/20 13:16:07;;;;;;;3.85;1.20;;;40.50;50.30;;;;;;5064412;28;20188;-61
2022/05/20 13:18:37;;;;;;;1.48;1.20;;;36.50;53.90;;;;;;5066145;28;20212;-57
2022/05/20 13:21:20;;;;;;;1.00;1.00;;;36.20;53.60;;;;;;5064010;28;20177;-52
2022/05/20 13:23:53;;;;;;;1.42;1.30;;;35.10;55.10;;;;;;5065391;28;20186;-51
2022/05/20 13:26:30;;;;;;;1.25;1.15;;;36.10;55.30;;;;;;5068694;28;20200;-47
2022/05/20 13:29:15;;;;;;;1.17;1.10;;;37.90;53.70;;;;;;5068786;28;20266;-60
2022/05/20 13:31:41;;;;;;;0.90;0.90;;;37.70;53.90;;;;;;5070168;28;20200;-60
2022/05/20 13:34:09;;;;;;;1.20;1.20;;;38.80;53.00;;;;;;5068200;28;20212;-59
2022/05/20 13:36:42;;;;;;;2.85;1.40;;;38.50;52.90;;;;;;5070368;28;20212;-60
2022/05/20 13:39:15;;;;;;;1.52;1.35;;;37.40;54.30;;;;;;5068234;28;20196;-58
2022/05/20 13:41:41;;;;;;;1.15;1.13;;;35.70;54.50;;;;;;5068988;28;20196;-59
2022/05/20 13:44:07;;;;;;;1.08;1.08;;;35.70;56.30;;;;;;5069031;28;20185;-52
2022/05/20 13:49:22;;;;;;;1.17;1.02;;;35.80;55.40;;;;;;5086247;28;20315;-54
2022/05/20 13:51:48;;;;;;;1.08;1.08;;;35.80;56.00;;;;;;5068177;28;20188;-56
2022/05/20 13:54:18;;;;;;;1.08;1.08;;;37.10;54.70;;;;;;5068785;28;20189;-49